• Join FlightAware (Why Join?)
  • Login
  • US Flag 
04:54AM EDT


 

Airport Tracker/Info


-or-


 

Live Flight TrackerFlight Track Log ✈ DAL3860 ✈ 16-Apr-2013 ✈ KCLE - KMSP

Flight Track Log - Related Links

Times and Time Zones

All times are in EDT time to prevent confusion due to time zone crossing. See the DAL3860 flight status page for this flight to view local times or setup timezone preferences in your user account.

Time Position Orientation Groundspeed Altitude Reporting Facility
EDT Latitude Longitude Course Direction KTS MPH feet Rate Location/Type
09:14AM 41.3919 -81.8783 270° West 151 174 1,700  Level Cleveland Center
09:15AM 41.3814 -81.8919 224° Southwest 157 181 2,600 1,800 Climbing Cleveland Center
09:16AM 41.3061 -81.9072 189° South 233 268 4,700 2,340 Climbing Cleveland Center
09:17AM 41.3564 -82.1943 260° West  Level FlightAware Approximate
09:17AM 41.2453 -81.9253 193° South 251 289 7,900  Level Cleveland Center
09:18AM 41.3408 -82.3110 260° West  Level FlightAware Approximate
09:18AM 41.1764 -81.9431 191° South 254 292 10,200  Level Cleveland Center
09:19AM 41.3186 -82.4255 252° West  Level FlightAware Approximate
09:19AM 41.0950 -81.9608 189° South 314 361 11,700  Level Cleveland Center
09:20AM 41.3000 -82.5399 270° West  Level FlightAware Approximate
09:20AM 41.0483 -82.0203 224° Southwest 253 291 12,000  Level Cleveland Center
09:21AM 41.0078 -82.0936 234° Southwest 246 283 12,400 1,260 Climbing Cleveland Center
09:22AM 40.9650 -82.1642 231° Southwest 251 289 14,600 2,100 Climbing Cleveland Center
09:23AM 40.9161 -82.2344 227° Southwest 261 300 16,600 1,800 Climbing Cleveland Center
09:24AM 40.8650 -82.3072 227° Southwest 266 306 18,300 1,620 Climbing Cleveland Center
09:25AM 40.8428 -82.3947 251° West 255 293 19,900 1,020 Climbing Cleveland Center
09:26AM 40.8678 -82.5189 285° West 277 319 20,600 600 Climbing Cleveland Center
09:27AM 40.8928 -82.6378 286° West 320 368 21,200 600 Climbing Cleveland Center
09:28AM 40.9178 -82.7594 285° West 342 394 21,900 600 Climbing Cleveland Center
09:29AM 40.9383 -82.8728 284° West 342 394 22,500 600 Climbing Cleveland Center
09:30AM 40.9650 -83.0031 285° West 354 407 23,100 600 Climbing Cleveland Center
09:31AM 40.9914 -83.1306 285° West 359 413 23,700 600 Climbing Cleveland Center
09:32AM 41.0214 -83.2722 286° West 364 419 24,300 540 Climbing Cleveland Center
09:33AM 41.0475 -83.4053 285° West 364 419 24,800 480 Climbing Cleveland Center
09:34AM 41.0731 -83.5414 284° West 375 432 25,300 480 Climbing Cleveland Center
09:35AM 41.0931 -83.6608 283° West 375 432 25,800 480 Climbing Cleveland Center
09:36AM 41.1186 -83.7917 285° West 375 432 26,300 540 Climbing Cleveland Center
09:37AM 41.1519 -83.9339 287° West 375 432 26,900 540 Climbing Cleveland Center
09:38AM 41.1753 -84.0647 283° West 370 426 27,400 480 Climbing Cleveland Center
09:39AM 41.1886 -84.1442 283° West 370 426 27,700 480 Climbing Chicago Center
09:40AM 41.2144 -84.2761 285° West 370 426 28,200 480 Climbing Chicago Center
09:41AM 41.2389 -84.4089 284° West 371 427 28,700 480 Climbing Chicago Center
09:42AM 41.2622 -84.5422 283° West 371 427 29,200 480 Climbing Chicago Center
09:43AM 41.2875 -84.6736 284° West 369 425 29,700 480 Climbing Chicago Center
09:44AM 41.3108 -84.8058 283° West 368 423 30,200 480 Climbing Chicago Center
09:45AM 41.3347 -84.9394 283° West 370 426 30,700 480 Climbing Chicago Center
09:46AM 41.3628 -85.0975 283° West 367 422 31,300 480 Climbing Chicago Center
09:47AM 41.3858 -85.2303 283° West 365 420 31,800 480 Climbing Chicago Center
09:48AM 41.4089 -85.3625 283° West 365 420 32,300 480 Climbing Chicago Center
09:49AM 41.4319 -85.4944 283° West 363 418 32,900 480 Climbing Chicago Center
09:50AM 41.4539 -85.6250 283° West 358 412 33,400 480 Climbing Chicago Center
09:51AM 41.4769 -85.7517 284° West 351 404 33,900 240 Climbing Chicago Center
09:52AM 41.4983 -85.8792 283° West 351 404 34,000  Climbing Chicago Center
09:53AM 41.5250 -86.0072 286° West 362 417 34,000  Level Chicago Center
09:54AM 41.6075 -86.1414 309° West 391 450 34,000  Level Chicago Center
09:55AM 41.6858 -86.2483 314° West 401 461 34,000  Level Chicago Center
09:56AM 41.7639 -86.3564 314° West 403 464 34,000  Level Chicago Center
09:58AM 41.8425 -86.4661 314° West 408 470 34,000  Level Chicago Center
09:59AM 41.9211 -86.5758 314° West 409 471 34,000  Level Chicago Center
10:00AM 42.0169 -86.7078 314° West 409 471 34,000  Level Chicago Center
10:01AM 42.0942 -86.8150 314° West 404 465 34,000  Level Chicago Center
10:02AM 42.1697 -86.9206 314° West 399 459 34,000  Level Chicago Center
10:03AM 42.2444 -87.0275 313° West 396 456 34,000  Level Chicago Center
10:04AM 42.3178 -87.1294 314° West 385 443 34,000  Level Chicago Center
10:05AM 42.4053 -87.2533 314° West 385 443 34,000  Level Chicago Center
10:06AM 42.4772 -87.3578 313° West 382 440 34,000  Level Chicago Center
10:07AM 42.5500 -87.4600 314° West 381 438 34,000  Level Chicago Center
10:08AM 42.6211 -87.5628 313° West 378 435 34,000  Level Chicago Center
10:09AM 42.6917 -87.6658 313° West 374 430 34,000  Level Chicago Center
10:10AM 42.7742 -87.7861 313° West 371 427 34,000  Level Chicago Center
10:11AM 42.8453 -87.8878 314° West 370 426 34,000  Level Chicago Center
10:12AM 42.9142 -87.9886 313° West 365 420 34,000  Level Chicago Center
10:13AM 42.9836 -88.0906 313° West 364 419 34,000  Level Chicago Center
10:14AM 43.0528 -88.1900 314° West 360 414 34,000  Level Chicago Center
10:15AM 43.1317 -88.3094 312° West 361 415 34,000  Level Chicago Center
10:16AM 43.1931 -88.4144 309° West 352 405 34,000  Level Chicago Center
10:17AM 43.2553 -88.5225 308° West 356 410 34,000  Level Chicago Center
10:18AM 43.3192 -88.6331 308° West 363 418 34,000  Level Chicago Center
10:19AM 43.3839 -88.7444 309° West 367 422 34,000  Level Chicago Center
10:20AM 43.4492 -88.8556 309° West 369 425 34,000  Level Chicago Center
10:21AM 43.5136 -88.9683 308° West 371 427 34,000  Level Chicago Center
10:22AM 43.5778 -89.0794 309° West 371 427 34,000  Level Chicago Center
10:23AM 43.6317 -89.1733 308° West 372 428 34,000  Level Minneapolis Center
10:24AM 43.6953 -89.2861 308° West 372 428 34,000  Level Minneapolis Center
10:25AM 43.7603 -89.4006 308° West 376 433 34,000  Level Minneapolis Center
10:26AM 43.8239 -89.5133 308° West 373 429 34,000  Level Minneapolis Center
10:27AM 43.8881 -89.6269 308° West 373 429 34,000  Level Minneapolis Center
10:28AM 43.9522 -89.7406 308° West 373 429 34,000  Level Minneapolis Center
10:29AM 44.0261 -89.8733 308° West 372 428 34,000  Level Minneapolis Center
10:30AM 44.0894 -89.9872 308° West 371 427 34,000  Level Minneapolis Center
10:31AM 44.1517 -90.0997 308° West 368 423 34,000  Level Minneapolis Center
10:32AM 44.2144 -90.2136 308° West 369 425 34,000  Level Minneapolis Center
10:33AM 44.2633 -90.3331 300° West 356 410 34,000  Level Minneapolis Center
10:34AM 44.3031 -90.4583 294° West 352 405 34,000  Level Minneapolis Center
10:35AM 44.3433 -90.5825 294° West 350 403 34,000  Level Minneapolis Center
10:36AM 44.3894 -90.7267 294° West 347 399 34,000  Level Minneapolis Center
10:37AM 44.4292 -90.8494 294° West 347 399 34,000  Level Minneapolis Center
10:39AM 44.4633 -90.9564 294° West 344 396 34,000  Level Minneapolis Center
10:40AM 44.5100 -91.1044 294° West 346 398 34,000  Level Minneapolis Center
10:41AM 44.5489 -91.2261 294° West 346 398 34,000 -540 Level Minneapolis Center
10:42AM 44.5864 -91.3500 293° West 345 397 33,000 -2,040 Descending Minneapolis Center
10:43AM 44.6275 -91.4822 294° West 361 415 29,900 -2,940 Descending Minneapolis Center
10:44AM 44.6672 -91.6086 294° West 361 415 27,000 -2,880 Descending Minneapolis Center
10:45AM 44.7050 -91.7333 293° West 351 404 24,000 -3,120 Descending Minneapolis Center
10:46AM 44.7597 -91.8814 298° West 349 402 20,400 -3,360 Descending FAA TRACON SMA TRACON (SMA)
10:46AM 44.7731 -91.9294 291° West 347 399 19,200 -2,820 Descending FAA TRACON SMA TRACON (SMA)
10:47AM 44.7964 -92.0053 293° West 342 394 17,600 -2,820 Descending FAA TRACON SMA TRACON (SMA)
10:47AM 44.8103 -92.0522 293° West 339 390 16,400 -3,180 Descending FAA TRACON SMA TRACON (SMA)
10:47AM 44.8203 -92.0894 291° West 335 386 15,500 -2,700 Descending FAA TRACON SMA TRACON (SMA)
10:48AM 44.8322 -92.1261 295° West 334 384 14,600 -3,240 Descending FAA TRACON SMA TRACON (SMA)
10:48AM 44.8453 -92.1703 293° West 323 372 13,400 -3,240 Descending FAA TRACON SMA TRACON (SMA)
10:48AM 44.8556 -92.2050 293° West 316 364 12,500 -2,700 Descending FAA TRACON SMA TRACON (SMA)
10:49AM 44.8642 -92.2386 290° West 305 351 11,600 -3,180 Descending FAA TRACON SMA TRACON (SMA)
10:49AM 44.8756 -92.2800 291° West 297 342 10,400 -2,400 Descending FAA TRACON SMA TRACON (SMA)
10:49AM 44.8803 -92.3142 281° West 292 336 10,000 -600 Descending FAA TRACON SMA TRACON (SMA)
10:50AM 44.8739 -92.3486 255° West 292 336 10,000 -180 Level FAA TRACON SMA TRACON (SMA)
10:50AM 44.8581 -92.3844 238° Southwest 290 334 9,900  Descending FAA TRACON SMA TRACON (SMA)
10:50AM 44.8464 -92.4089 236° Southwest 264 304 10,000 -180 Climbing FAA TRACON SMA TRACON (SMA)
10:51AM 44.8353 -92.4314 235° Southwest 238 274 9,800 -1,080 Descending FAA TRACON SMA TRACON (SMA)
10:51AM 44.8219 -92.4600 237° Southwest 226 260 9,300 -1,200 Descending FAA TRACON SMA TRACON (SMA)
10:51AM 44.8092 -92.4847 234° Southwest 235 270 9,000 -480 Descending FAA TRACON SMA TRACON (SMA)
10:52AM 44.7972 -92.5100 236° Southwest 248 285 9,000  Level FAA TRACON SMA TRACON (SMA)
10:52AM 44.7811 -92.5428 235° Southwest 261 300 9,000  Level FAA TRACON SMA TRACON (SMA)
10:52AM 44.7692 -92.5683 237° Southwest 260 299 9,000 -600 Level FAA TRACON SMA TRACON (SMA)
10:53AM 44.7581 -92.5939 239° Southwest 254 292 8,600 -1,500 Descending FAA TRACON SMA TRACON (SMA)
10:53AM 44.7461 -92.6267 243° Southwest 246 283 8,000 -1,680 Descending FAA TRACON SMA TRACON (SMA)
10:53AM 44.7417 -92.6556 258° West 245 282 7,500 -1,380 Descending FAA TRACON SMA TRACON (SMA)
10:54AM 44.7397 -92.6842 265° West 243 280 7,100 -1,500 Descending FAA TRACON SMA TRACON (SMA)
10:54AM 44.7356 -92.7211 261° West 245 282 6,500 -1,680 Descending FAA TRACON SMA TRACON (SMA)
10:54AM 44.7314 -92.7511 259° West 251 289 6,000 -1,440 Descending FAA TRACON SMA TRACON (SMA)
10:55AM 44.7281 -92.7811 261° West 254 292 5,600 -1,560 Descending FAA TRACON SMA TRACON (SMA)
10:55AM 44.7275 -92.8181 269° West 253 291 5,000 -1,620 Descending FAA TRACON SMA TRACON (SMA)
10:55AM 44.7289 -92.8483 274° West 252 290 4,500 -1,320 Descending FAA TRACON SMA TRACON (SMA)
10:56AM 44.7331 -92.8772 281° West 247 284 4,100 -780 Descending FAA TRACON SMA TRACON (SMA)
10:56AM 44.7444 -92.9103 296° West 243 280 4,000 -180 Descending FAA TRACON SMA TRACON (SMA)
10:56AM 44.7553 -92.9358 301° West 248 285 4,000  Level FAA TRACON SMA TRACON (SMA)
10:57AM 44.7669 -92.9578 307° West 235 270 4,000  Level FAA TRACON SMA TRACON (SMA)
10:57AM 44.7792 -92.9833 304° West 208 239 4,000  Level FAA TRACON SMA TRACON (SMA)
10:57AM 44.7872 -93.0014 302° West 188 216 4,000  Level FAA TRACON SMA TRACON (SMA)
10:58AM 44.7953 -93.0189 303° West 172 198 4,000 -600 Level FAA TRACON SMA TRACON (SMA)
10:58AM 44.8042 -93.0411 299° West 169 194 3,600 -1,080 Descending FAA TRACON SMA TRACON (SMA)
10:58AM 44.8119 -93.0586 302° West 170 196 3,300 -900 Descending FAA TRACON SMA TRACON (SMA)
10:59AM 44.8194 -93.0761 301° West 170 196 3,000 -1,080 Descending FAA TRACON SMA TRACON (SMA)
10:59AM 44.8317 -93.0969 310° West 178 205 2,600 -900 Descending FAA TRACON SMA TRACON (SMA)
10:59AM 44.8419 -93.1106 317° Northwest 171 197 2,400 -600 Descending FAA TRACON SMA TRACON (SMA)